Time;durP1;ratioP1;P1;durP2;ratioP2;P2;SDS_P1;SDS_P2;PMS_P1;PMS_P2;Temp;Humidity;BMP_temperature;BMP_pressure;BME280_temperature;BME280_humidity;BME280_pressure;Samples;Min_cycle;Max_cycle;Signal;HPM_P1;HPM_P2
2021/09/05 00:02:12;;;;;;;27.83;22.90;;;18.60;69.50;;;;;;5115690;28;20937;-76
2021/09/05 00:04:38;;;;;;;28.70;23.10;;;18.60;69.50;;;;;;5115948;28;20449;-76
2021/09/05 00:07:05;;;;;;;29.10;23.60;;;18.50;69.50;;;;;;5115783;28;20482;-76
2021/09/05 00:09:32;;;;;;;30.83;25.30;;;18.50;69.70;;;;;;5115589;28;20428;-76
2021/09/05 00:11:58;;;;;;;31.90;22.70;;;18.50;69.70;;;;;;5115814;28;20443;-76
2021/09/05 00:14:25;;;;;;;31.27;23.50;;;18.50;69.90;;;;;;5115424;28;20462;-76
2021/09/05 00:16:52;;;;;;;30.87;23.20;;;18.50;70.00;;;;;;5115638;28;20824;-76
2021/09/05 00:19:20;;;;;;;29.00;23.10;;;18.50;70.10;;;;;;5115648;28;20442;-76
2021/09/05 00:21:47;;;;;;;28.43;23.43;;;18.50;70.50;;;;;;5115598;28;20451;-75
2021/09/05 00:24:13;;;;;;;29.37;24.40;;;18.50;70.50;;;;;;5115564;28;20500;-76
2021/09/05 00:26:40;;;;;;;26.70;23.07;;;18.40;70.40;;;;;;5115353;28;20459;-75
2021/09/05 00:29:07;;;;;;;29.17;22.37;;;18.50;70.50;;;;;;5115138;28;20938;-75
2021/09/05 00:31:33;;;;;;;27.93;23.40;;;18.40;70.40;;;;;;5115447;28;20443;-76
2021/09/05 00:34:03;;;;;;;26.93;23.17;;;18.40;70.50;;;;;;5115373;28;20451;-75
2021/09/05 00:36:31;;;;;;;29.33;23.70;;;18.30;70.60;;;;;;5114911;28;20965;-76
2021/09/05 00:38:58;;;;;;;28.37;23.10;;;18.30;71.00;;;;;;5115342;28;20439;-76
2021/09/05 00:41:24;;;;;;;27.67;22.23;;;18.20;71.30;;;;;;5115250;28;20443;-76
2021/09/05 00:43:56;;;;;;;29.73;23.50;;;18.20;71.30;;;;;;5114868;28;20808;-75
2021/09/05 00:46:23;;;;;;;28.20;22.23;;;18.20;71.30;;;;;;5115057;28;20438;-76
2021/09/05 00:48:49;;;;;;;29.53;24.23;;;18.10;71.30;;;;;;5115002;28;20489;-76
2021/09/05 00:51:16;;;;;;;28.80;23.33;;;18.10;71.30;;;;;;5115032;28;20450;-76
2021/09/05 00:53:45;;;;;;;27.87;24.83;;;18.10;71.40;;;;;;5115072;28;20443;-76
2021/09/05 00:56:12;;;;;;;30.50;22.50;;;18.10;71.40;;;;;;5114584;28;20473;-76
2021/09/05 00:58:41;;;;;;;25.50;21.87;;;18.10;71.30;;;;;;5114903;28;20434;-76
2021/09/05 01:01:08;;;;;;;27.20;22.37;;;18.00;71.10;;;;;;5114537;28;20889;-76
2021/09/05 01:03:35;;;;;;;29.93;21.97;;;18.00;71.30;;;;;;5114815;28;20446;-76
2021/09/05 01:06:01;;;;;;;29.53;23.23;;;17.90;71.10;;;;;;5114766;28;20447;-75
2021/09/05 01:08:28;;;;;;;27.77;21.83;;;17.90;71.60;;;;;;5114579;28;20478;-76
2021/09/05 01:10:56;;;;;;;25.33;20.80;;;17.90;71.70;;;;;;5114691;28;20447;-76
2021/09/05 01:13:23;;;;;;;29.13;22.30;;;17.80;71.40;;;;;;5114376;28;20466;-76
2021/09/05 01:15:50;;;;;;;25.43;20.13;;;17.80;71.20;;;;;;5114310;28;20929;-76
2021/09/05 01:18:17;;;;;;;26.00;21.60;;;17.70;71.50;;;;;;5114538;28;20532;-76
2021/09/05 01:20:43;;;;;;;25.77;20.10;;;17.70;71.90;;;;;;5114159;28;20934;-75
2021/09/05 01:23:10;;;;;;;23.57;20.33;;;17.70;72.00;;;;;;5114449;28;20443;-76
2021/09/05 01:25:37;;;;;;;24.87;19.67;;;17.70;71.80;;;;;;5114084;28;20930;-75
2021/09/05 01:28:08;;;;;;;23.20;19.13;;;17.60;71.40;;;;;;5114251;28;20486;-76
2021/09/05 01:30:35;;;;;;;23.53;20.20;;;17.70;71.60;;;;;;5114406;28;20766;-76
2021/09/05 01:33:02;;;;;;;27.73;20.13;;;17.60;71.50;;;;;;5113579;28;20946;-76
2021/09/05 01:35:29;;;;;;;23.50;20.17;;;17.60;71.60;;;;;;5114245;28;20446;-76
2021/09/05 01:37:56;;;;;;;24.83;19.77;;;17.60;71.40;;;;;;5113867;28;20462;-76
2021/09/05 01:40:22;;;;;;;29.40;22.07;;;17.60;71.30;;;;;;5114143;28;20451;-75
2021/09/05 01:42:49;;;;;;;25.20;21.00;;;17.60;71.30;;;;;;5114163;28;20451;-76
2021/09/05 01:45:17;;;;;;;25.53;21.40;;;17.60;71.40;;;;;;5114135;28;20446;-76
2021/09/05 01:47:44;;;;;;;22.70;18.30;;;17.60;71.30;;;;;;5114476;28;20885;-77
2021/09/05 01:50:12;;;;;;;23.00;19.23;;;17.60;71.40;;;;;;5114312;28;20450;-76
2021/09/05 01:52:38;;;;;;;21.90;18.00;;;17.60;71.60;;;;;;5113897;28;20809;-76
2021/09/05 01:55:06;;;;;;;23.30;19.00;;;17.50;72.40;;;;;;5114108;28;20453;-76
2021/09/05 01:57:32;;;;;;;25.27;19.23;;;17.60;71.80;;;;;;5113797;28;20832;-76
2021/09/05 01:59:59;;;;;;;24.10;20.10;;;17.50;71.60;;;;;;5113951;28;20447;-76
2021/09/05 02:02:27;;;;;;;23.03;18.60;;;17.50;71.70;;;;;;5114060;28;20443;-76
2021/09/05 02:04:54;;;;;;;21.40;18.27;;;17.50;71.80;;;;;;5113687;28;20929;-76
2021/09/05 02:07:20;;;;;;;22.20;18.10;;;17.40;71.90;;;;;;5113792;28;20466;-76
2021/09/05 02:09:47;;;;;;;21.87;18.07;;;17.40;72.30;;;;;;5113919;28;20454;-76
2021/09/05 02:12:14;;;;;;;23.73;19.03;;;17.30;72.20;;;;;;5113672;28;20930;-76
2021/09/05 02:14:41;;;;;;;26.00;19.77;;;17.30;72.20;;;;;;5113476;28;20498;-76
2021/09/05 02:17:08;;;;;;;23.00;19.87;;;17.30;72.30;;;;;;5113708;28;20470;-76
2021/09/05 02:19:36;;;;;;;23.43;18.10;;;17.20;72.50;;;;;;5113759;28;20906;-76
2021/09/05 02:22:03;;;;;;;22.90;17.80;;;17.20;72.40;;;;;;5113699;28;20450;-76
2021/09/05 02:24:30;;;;;;;26.30;19.37;;;17.20;72.40;;;;;;5113759;28;20489;-76
2021/09/05 02:26:56;;;;;;;23.73;18.83;;;17.20;72.30;;;;;;5113577;28;20462;-76
2021/09/05 02:29:23;;;;;;;22.07;18.50;;;17.20;72.40;;;;;;5113244;28;20474;-76
2021/09/05 02:31:51;;;;;;;22.03;18.67;;;17.20;73.20;;;;;;5113646;28;20439;-76
2021/09/05 02:34:18;;;;;;;22.90;17.43;;;17.20;72.30;;;;;;5113622;28;20819;-76
2021/09/05 02:36:47;;;;;;;25.80;19.63;;;17.20;72.30;;;;;;5113454;28;20470;-76
2021/09/05 02:39:14;;;;;;;23.13;17.40;;;17.20;72.40;;;;;;5113569;28;20463;-76
2021/09/05 02:41:40;;;;;;;22.50;18.10;;;17.20;72.40;;;;;;5113577;28;20836;-76
2021/09/05 02:44:07;;;;;;;22.77;18.83;;;17.10;72.40;;;;;;5113515;28;20454;-76
2021/09/05 02:46:34;;;;;;;21.30;18.30;;;17.10;72.40;;;;;;5115908;28;20469;-76
2021/09/05 02:49:01;;;;;;;21.23;18.03;;;17.10;72.70;;;;;;5117343;28;20482;-76
2021/09/05 02:51:27;;;;;;;22.80;18.60;;;17.10;72.80;;;;;;5117419;28;20831;-76
2021/09/05 02:53:55;;;;;;;24.70;19.63;;;17.10;72.70;;;;;;5117374;28;20446;-76
2021/09/05 02:56:22;;;;;;;24.03;19.60;;;17.00;72.30;;;;;;5116977;28;20995;-76
2021/09/05 02:58:49;;;;;;;21.70;18.97;;;17.00;72.40;;;;;;5117260;28;20542;-76
2021/09/05 03:01:15;;;;;;;22.10;18.47;;;16.90;72.60;;;;;;5117279;28;20451;-76
2021/09/05 03:03:42;;;;;;;19.33;17.13;;;16.90;72.60;;;;;;5117260;28;20427;-76
2021/09/05 03:06:09;;;;;;;17.43;15.43;;;16.90;72.80;;;;;;5117091;28;20447;-75
2021/09/05 03:08:36;;;;;;;18.93;16.60;;;16.80;72.70;;;;;;5117869;28;20544;-76
2021/09/05 03:11:04;;;;;;;19.67;16.70;;;16.80;73.00;;;;;;5117018;28;20815;-76
2021/09/05 03:13:31;;;;;;;19.97;17.13;;;16.80;73.00;;;;;;5116806;28;20458;-76
2021/09/05 03:15:57;;;;;;;19.17;15.67;;;16.80;72.80;;;;;;5116969;28;20465;-76
2021/09/05 03:18:24;;;;;;;24.77;17.23;;;16.80;73.00;;;;;;5116799;28;20463;-76
2021/09/05 03:20:51;;;;;;;17.40;15.60;;;16.80;73.20;;;;;;5116546;28;20960;-76
2021/09/05 03:23:17;;;;;;;21.13;15.10;;;16.70;73.20;;;;;;5116845;28;20495;-76
2021/09/05 03:25:44;;;;;;;18.83;16.83;;;16.70;73.30;;;;;;5116790;28;20445;-76
2021/09/05 03:28:13;;;;;;;20.07;16.50;;;16.60;73.30;;;;;;5116589;28;20489;-76
2021/09/05 03:30:39;;;;;;;20.87;15.80;;;16.60;73.50;;;;;;5116338;28;20449;-76
2021/09/05 03:33:06;;;;;;;20.43;17.67;;;16.60;73.40;;;;;;5116667;28;20443;-76
2021/09/05 03:35:33;;;;;;;23.73;17.83;;;16.60;73.20;;;;;;5116611;28;20449;-76
2021/09/05 03:37:59;;;;;;;18.80;16.77;;;16.60;73.10;;;;;;5116455;28;20454;-76
2021/09/05 03:40:26;;;;;;;19.80;16.90;;;16.60;73.20;;;;;;5116234;28;20427;-76
2021/09/05 03:42:53;;;;;;;21.93;18.20;;;16.60;73.20;;;;;;5116388;28;20455;-76
2021/09/05 03:45:21;;;;;;;21.63;18.20;;;16.60;73.20;;;;;;5116397;28;20488;-76
2021/09/05 03:47:47;;;;;;;21.10;17.50;;;16.60;73.10;;;;;;5115888;28;20459;-76
2021/09/05 03:50:14;;;;;;;24.13;17.93;;;16.60;73.20;;;;;;5116029;28;20439;-76
2021/09/05 03:52:42;;;;;;;20.53;16.93;;;16.60;73.40;;;;;;5116261;28;20435;-76
2021/09/05 03:55:10;;;;;;;19.63;17.50;;;16.50;73.40;;;;;;5116334;28;20806;-76
2021/09/05 03:57:37;;;;;;;21.80;17.50;;;16.50;73.30;;;;;;5115716;28;20462;-76
2021/09/05 04:00:05;;;;;;;21.10;16.83;;;16.50;73.20;;;;;;5115842;28;20960;-76
2021/09/05 04:02:33;;;;;;;20.47;16.90;;;16.50;73.10;;;;;;5116136;28;20487;-76
2021/09/05 04:05:00;;;;;;;21.53;17.13;;;16.50;73.40;;;;;;5116018;28;20435;-76
2021/09/05 04:07:26;;;;;;;21.63;16.47;;;16.50;73.40;;;;;;5115898;28;20463;-76
2021/09/05 04:10:11;;;;;;;19.20;15.60;;;16.40;73.50;;;;;;5115866;28;20531;-76
2021/09/05 04:12:40;;;;;;;17.67;15.70;;;16.40;73.70;;;;;;5115833;28;20454;-77
2021/09/05 04:15:08;;;;;;;20.17;16.53;;;16.40;73.50;;;;;;5115849;28;20484;-76
2021/09/05 04:17:36;;;;;;;18.17;16.27;;;16.30;73.20;;;;;;5115757;27;20479;-76
2021/09/05 04:20:04;;;;;;;17.53;15.73;;;16.30;73.30;;;;;;5115704;28;20439;-76
2021/09/05 04:22:32;;;;;;;15.00;13.40;;;16.20;73.40;;;;;;5115388;28;20938;-76
2021/09/05 04:24:59;;;;;;;17.77;14.77;;;16.20;73.60;;;;;;5115588;28;20454;-76
2021/09/05 04:27:25;;;;;;;15.80;14.20;;;16.20;73.80;;;;;;5115205;28;20837;-76
2021/09/05 04:29:52;;;;;;;16.73;14.93;;;16.20;73.80;;;;;;5115455;28;20478;-76
2021/09/05 04:32:20;;;;;;;16.73;14.43;;;16.20;73.80;;;;;;5115437;28;20456;-76
2021/09/05 04:34:49;;;;;;;15.90;14.00;;;16.10;73.80;;;;;;5115453;28;20451;-76
2021/09/05 04:37:16;;;;;;;16.20;14.60;;;16.10;74.00;;;;;;5115365;28;20498;-76
2021/09/05 04:39:43;;;;;;;17.73;15.83;;;16.10;74.50;;;;;;5115090;28;20471;-76
2021/09/05 04:42:09;;;;;;;16.90;14.27;;;16.10;74.40;;;;;;5115321;28;20816;-76
2021/09/05 04:44:36;;;;;;;20.00;15.07;;;16.10;74.90;;;;;;5115283;28;20450;-76
2021/09/05 04:47:04;;;;;;;19.07;15.73;;;16.00;76.30;;;;;;5115162;28;20465;-76
2021/09/05 04:49:31;;;;;;;15.93;14.23;;;16.00;75.80;;;;;;5115143;28;20480;-76
2021/09/05 04:52:00;;;;;;;21.90;15.90;;;16.00;75.90;;;;;;5115180;28;20480;-76
2021/09/05 04:54:26;;;;;;;18.67;16.30;;;16.00;76.00;;;;;;5115026;28;20500;-76
2021/09/05 04:56:53;;;;;;;20.83;16.47;;;16.00;75.70;;;;;;5114932;28;20463;-75
2021/09/05 04:59:20;;;;;;;17.87;15.93;;;16.00;75.70;;;;;;5114979;28;20438;-76
2021/09/05 05:01:47;;;;;;;19.00;15.70;;;16.00;75.50;;;;;;5114595;28;20450;-76
2021/09/05 05:04:13;;;;;;;20.60;17.80;;;16.00;75.40;;;;;;5114525;28;20504;-76
2021/09/05 05:06:41;;;;;;;20.07;17.20;;;16.00;75.30;;;;;;5114704;28;20467;-75
2021/09/05 05:09:09;;;;;;;19.23;17.27;;;16.00;75.20;;;;;;5114011;28;20471;-76
2021/09/05 05:11:36;;;;;;;17.30;15.50;;;15.90;75.30;;;;;;5114760;28;20434;-76
2021/09/05 05:14:03;;;;;;;18.40;16.50;;;15.90;75.40;;;;;;5114241;28;20964;-76
2021/09/05 05:16:30;;;;;;;17.20;15.47;;;15.90;75.50;;;;;;5114534;28;20466;-76
2021/09/05 05:18:57;;;;;;;15.47;13.87;;;15.90;75.80;;;;;;5114583;28;20529;-76
2021/09/05 05:21:26;;;;;;;16.20;14.50;;;15.80;75.80;;;;;;5114519;28;20454;-76
2021/09/05 05:23:53;;;;;;;15.43;13.83;;;15.80;76.10;;;;;;5114164;28;20959;-75
2021/09/05 05:26:21;;;;;;;16.03;14.33;;;15.80;76.20;;;;;;5114392;28;20442;-76
2021/09/05 05:28:48;;;;;;;16.30;14.63;;;15.80;76.10;;;;;;5114285;28;20475;-76
2021/09/05 05:31:15;;;;;;;16.60;14.90;;;15.90;76.30;;;;;;5114291;28;20450;-75
2021/09/05 05:33:42;;;;;;;17.30;15.50;;;15.90;76.30;;;;;;5114298;28;20447;-76
2021/09/05 05:36:08;;;;;;;16.00;13.87;;;15.90;76.20;;;;;;5114220;28;20446;-76
2021/09/05 05:38:35;;;;;;;14.60;13.10;;;16.00;76.40;;;;;;5114267;28;20458;-75
2021/09/05 05:41:02;;;;;;;17.33;15.63;;;16.00;76.50;;;;;;5114253;28;20451;-76
2021/09/05 05:43:30;;;;;;;16.47;14.87;;;16.00;76.40;;;;;;5114148;28;20473;-76
2021/09/05 05:45:57;;;;;;;16.30;14.70;;;16.00;76.90;;;;;;5114927;28;20443;-76
2021/09/05 05:48:24;;;;;;;16.90;15.07;;;16.00;77.10;;;;;;5113616;28;20974;-76
2021/09/05 05:50:52;;;;;;;16.80;14.53;;;16.00;77.60;;;;;;5114061;28;20840;-76
2021/09/05 05:53:19;;;;;;;16.40;14.10;;;16.00;77.90;;;;;;5113626;28;20817;-76
2021/09/05 05:55:46;;;;;;;17.50;14.93;;;16.00;78.10;;;;;;5114002;28;20446;-76
2021/09/05 05:58:13;;;;;;;17.17;15.37;;;16.00;78.20;;;;;;5113595;28;21015;-76
2021/09/05 06:00:42;;;;;;;17.77;15.17;;;16.10;78.40;;;;;;5113935;28;20438;-76
2021/09/05 06:03:09;;;;;;;17.80;15.90;;;16.20;78.50;;;;;;5113956;28;20439;-76
2021/09/05 06:05:36;;;;;;;20.50;17.27;;;16.20;78.50;;;;;;5113529;28;20949;-76
2021/09/05 06:08:03;;;;;;;16.80;14.97;;;16.20;78.60;;;;;;5113751;28;20463;-76
2021/09/05 06:10:30;;;;;;;19.37;15.97;;;16.30;79.00;;;;;;5113607;28;20474;-76
2021/09/05 06:12:57;;;;;;;19.17;16.90;;;16.30;79.30;;;;;;5113238;28;20465;-76
2021/09/05 06:15:24;;;;;;;19.77;15.60;;;16.40;79.80;;;;;;5114591;28;20842;-76
2021/09/05 06:17:53;;;;;;;17.60;15.70;;;16.40;80.20;;;;;;5114082;28;20849;-76
2021/09/05 06:20:20;;;;;;;19.07;15.87;;;16.50;80.50;;;;;;5115477;28;20430;-76
2021/09/05 06:22:47;;;;;;;20.27;16.00;;;16.50;80.70;;;;;;5117456;28;20956;-76
2021/09/05 06:25:13;;;;;;;20.33;16.10;;;16.60;81.10;;;;;;5117819;28;20430;-76
2021/09/05 06:27:40;;;;;;;20.37;17.47;;;16.60;81.50;;;;;;5117677;28;20581;-76
2021/09/05 06:30:08;;;;;;;25.60;19.03;;;16.60;82.00;;;;;;5117467;28;20477;-76
2021/09/05 06:32:35;;;;;;;23.60;18.70;;;16.70;82.60;;;;;;5117691;28;20442;-76
2021/09/05 06:35:03;;;;;;;24.67;19.03;;;16.80;83.10;;;;;;5118013;28;20446;-76
2021/09/05 06:37:29;;;;;;;22.97;17.83;;;16.90;83.60;;;;;;5117510;28;20459;-76
2021/09/05 06:39:56;;;;;;;21.83;19.53;;;17.00;84.00;;;;;;5117478;28;20443;-76
2021/09/05 06:42:23;;;;;;;20.30;18.10;;;17.10;84.20;;;;;;5117492;28;20456;-76
2021/09/05 06:44:50;;;;;;;23.50;20.20;;;17.10;84.40;;;;;;5117267;28;20796;-76
2021/09/05 06:47:16;;;;;;;24.73;19.90;;;17.30;84.40;;;;;;5117433;28;20467;-76
2021/09/05 06:49:43;;;;;;;23.13;20.73;;;17.30;84.10;;;;;;5117308;28;20515;-76
2021/09/05 06:52:11;;;;;;;22.90;20.43;;;17.40;84.20;;;;;;5117476;28;20427;-76
2021/09/05 06:54:38;;;;;;;26.63;23.63;;;17.50;84.40;;;;;;5117293;28;20423;-76
2021/09/05 06:57:06;;;;;;;25.13;22.47;;;17.60;84.10;;;;;;5116767;28;20475;-76
2021/09/05 06:59:33;;;;;;;30.03;24.00;;;17.80;83.90;;;;;;5117200;28;20465;-76
2021/09/05 07:02:00;;;;;;;27.13;23.90;;;17.90;83.20;;;;;;5117143;28;20437;-77
2021/09/05 07:04:27;;;;;;;27.37;24.57;;;18.00;82.90;;;;;;5117050;28;20447;-76
2021/09/05 07:06:53;;;;;;;29.67;23.57;;;18.10;82.50;;;;;;5116812;28;20462;-76
2021/09/05 07:09:21;;;;;;;27.83;24.83;;;18.30;82.10;;;;;;5116555;28;20462;-76
2021/09/05 07:11:48;;;;;;;24.77;22.27;;;18.40;81.80;;;;;;5117050;28;20454;-77
2021/09/05 07:14:15;;;;;;;24.63;21.10;;;18.50;81.90;;;;;;5116689;28;20466;-76
2021/09/05 07:16:41;;;;;;;25.93;21.37;;;18.60;82.10;;;;;;5116992;28;20498;-77
2021/09/05 07:19:08;;;;;;;22.80;20.37;;;18.80;82.30;;;;;;5117090;28;20484;-77
2021/09/05 07:21:35;;;;;;;22.23;19.57;;;18.90;81.70;;;;;;5116720;28;20446;-76
2021/09/05 07:24:01;;;;;;;21.43;18.50;;;19.00;80.80;;;;;;5116985;28;20446;-77
2021/09/05 07:26:30;;;;;;;23.67;18.20;;;19.10;80.00;;;;;;5116728;28;20451;-77
2021/09/05 07:28:56;;;;;;;22.50;18.23;;;19.30;79.60;;;;;;5116650;28;20450;-76
2021/09/05 07:31:23;;;;;;;20.27;18.17;;;19.40;78.90;;;;;;5116018;28;20434;-76
2021/09/05 07:33:50;;;;;;;20.90;16.97;;;19.60;78.40;;;;;;5117643;28;20423;-77
2021/09/05 07:36:16;;;;;;;18.90;17.00;;;19.70;78.40;;;;;;5116684;28;20431;-76
2021/09/05 07:38:43;;;;;;;20.33;17.13;;;19.80;77.90;;;;;;5116677;28;20816;-77
2021/09/05 07:41:10;;;;;;;23.27;19.30;;;19.90;77.30;;;;;;5116664;28;20508;-76
2021/09/05 07:43:38;;;;;;;22.83;18.63;;;20.10;77.00;;;;;;5116450;28;20455;-77
2021/09/05 07:46:05;;;;;;;20.20;18.03;;;20.20;76.50;;;;;;5116432;28;20454;-76
2021/09/05 07:48:31;;;;;;;22.60;19.07;;;20.40;76.10;;;;;;5116352;28;20466;-77
2021/09/05 07:50:58;;;;;;;20.33;17.67;;;20.50;75.60;;;;;;5116264;28;20466;-76
2021/09/05 07:53:25;;;;;;;19.17;17.17;;;20.60;75.30;;;;;;5116248;28;20447;-76
2021/09/05 07:55:51;;;;;;;18.20;16.20;;;20.80;75.10;;;;;;5115926;28;20934;-76
2021/09/05 07:58:18;;;;;;;20.07;17.63;;;20.90;74.60;;;;;;5116070;28;20473;-76
2021/09/05 08:00:46;;;;;;;20.40;18.37;;;21.10;73.90;;;;;;5116347;28;20420;-76
2021/09/05 08:03:13;;;;;;;19.00;16.53;;;21.20;73.60;;;;;;5116050;28;20445;-76
2021/09/05 08:05:40;;;;;;;20.77;15.73;;;21.40;73.10;;;;;;5116043;28;20450;-76
2021/09/05 08:08:06;;;;;;;16.90;15.10;;;21.50;72.70;;;;;;5116075;28;20468;-77
2021/09/05 08:10:33;;;;;;;16.27;14.43;;;21.70;72.80;;;;;;5116075;28;21028;-77
2021/09/05 08:13:00;;;;;;;16.50;14.90;;;21.90;72.30;;;;;;5115914;28;20450;-76
2021/09/05 08:15:27;;;;;;;16.63;14.70;;;22.10;71.60;;;;;;5116641;28;20951;-76
2021/09/05 08:17:55;;;;;;;16.40;14.70;;;22.30;71.20;;;;;;5125431;28;20474;-76
2021/09/05 08:20:21;;;;;;;15.80;14.13;;;22.50;71.00;;;;;;5119477;28;20957;-77
2021/09/05 08:22:48;;;;;;;16.83;15.00;;;22.70;70.60;;;;;;5116813;28;20446;-77
2021/09/05 08:25:15;;;;;;;15.00;13.50;;;22.90;70.20;;;;;;5116728;28;20525;-77
2021/09/05 08:27:42;;;;;;;16.73;15.00;;;23.10;68.80;;;;;;5116102;28;20842;-77
2021/09/05 08:30:10;;;;;;;16.87;14.97;;;23.30;68.20;;;;;;5116570;28;20470;-77
2021/09/05 08:32:37;;;;;;;16.87;15.10;;;23.50;67.10;;;;;;5116674;28;20430;-78
2021/09/05 08:35:05;;;;;;;17.03;15.23;;;23.70;65.50;;;;;;5116096;28;20942;-77
2021/09/05 08:37:32;;;;;;;15.87;14.00;;;23.90;64.40;;;;;;5116414;28;20467;-77
2021/09/05 08:39:59;;;;;;;15.83;14.30;;;24.10;63.70;;;;;;5116104;28;20956;-77
2021/09/05 08:42:27;;;;;;;17.17;15.47;;;24.40;63.00;;;;;;5116011;28;20466;-77
2021/09/05 08:44:54;;;;;;;17.80;15.20;;;24.60;61.60;;;;;;5115941;28;20503;-77
2021/09/05 08:47:22;;;;;;;16.70;14.90;;;24.80;60.70;;;;;;5116359;28;20466;-77
2021/09/05 08:49:50;;;;;;;14.70;12.57;;;24.90;61.60;;;;;;5116607;28;20459;-77
2021/09/05 08:52:18;;;;;;;14.53;13.17;;;25.10;60.60;;;;;;5116279;28;20446;-77
2021/09/05 08:54:45;;;;;;;15.90;14.43;;;25.40;59.80;;;;;;5116080;28;20443;-77
2021/09/05 08:57:11;;;;;;;15.43;14.00;;;25.60;58.90;;;;;;5116003;28;20455;-78
2021/09/05 08:59:38;;;;;;;15.43;13.97;;;25.70;58.50;;;;;;5115904;28;20957;-77
2021/09/05 09:02:05;;;;;;;15.80;13.07;;;26.00;58.30;;;;;;5116219;28;20799;-77
2021/09/05 09:04:37;;;;;;;16.70;14.93;;;26.10;57.80;;;;;;5115909;28;20415;-77
2021/09/05 09:07:09;;;;;;;16.33;14.83;;;26.30;56.90;;;;;;5115827;28;20497;-77
2021/09/05 09:09:38;;;;;;;16.97;15.20;;;26.40;55.30;;;;;;5115871;28;20602;-77
2021/09/05 09:12:05;;;;;;;15.77;14.23;;;26.50;55.20;;;;;;5116399;28;20442;-77
2021/09/05 09:14:43;;;;;;;14.43;13.03;;;26.70;55.70;;;;;;5115633;28;20462;-77
2021/09/05 09:17:11;;;;;;;15.83;14.13;;;26.90;55.80;;;;;;5115970;28;20459;-78
2021/09/05 09:19:38;;;;;;;15.50;13.97;;;27.10;55.20;;;;;;5115762;28;20487;-77
2021/09/05 09:22:06;;;;;;;15.00;13.60;;;27.30;54.70;;;;;;5115403;28;20446;-77
2021/09/05 09:24:42;;;;;;;13.83;12.43;;;27.50;54.90;;;;;;5115930;28;20423;-77
2021/09/05 09:27:11;;;;;;;14.80;13.37;;;27.70;53.80;;;;;;5115417;28;20462;-77
2021/09/05 09:29:38;;;;;;;15.60;14.00;;;27.90;53.20;;;;;;5115852;28;20482;-77
2021/09/05 09:32:07;;;;;;;18.40;15.50;;;28.10;52.10;;;;;;5116060;28;20457;-77
2021/09/05 09:34:41;;;;;;;13.33;12.23;;;28.30;51.60;;;;;;5115682;28;20454;-77
2021/09/05 09:37:16;;;;;;;14.90;13.50;;;28.40;51.60;;;;;;5115578;28;20510;-77
2021/09/05 09:39:49;;;;;;;14.67;13.17;;;28.70;51.20;;;;;;5115681;28;20442;-77
2021/09/05 09:42:33;;;;;;;14.47;13.10;;;28.80;50.60;;;;;;5115559;28;20931;-77
2021/09/05 09:45:00;;;;;;;13.83;12.63;;;29.00;49.20;;;;;;5115843;28;20431;-77
2021/09/05 09:47:38;;;;;;;14.00;12.70;;;29.20;49.60;;;;;;5115607;28;20553;-77
2021/09/05 09:50:05;;;;;;;13.87;12.60;;;29.40;49.60;;;;;;5115150;28;20530;-77
2021/09/05 09:52:32;;;;;;;12.90;11.60;;;29.60;49.00;;;;;;5115506;28;20447;-77
2021/09/05 09:55:00;;;;;;;14.13;12.27;;;29.80;48.40;;;;;;5114876;28;20805;-77
2021/09/05 09:57:27;;;;;;;13.10;12.10;;;30.10;48.00;;;;;;5115505;28;20871;-78
2021/09/05 09:59:53;;;;;;;13.93;12.60;;;30.30;47.50;;;;;;5115591;28;20451;-78
2021/09/05 10:02:24;;;;;;;13.47;12.17;;;30.60;46.90;;;;;;5115153;28;20439;-77
2021/09/05 10:04:53;;;;;;;14.93;13.53;;;30.90;46.50;;;;;;5115458;28;20480;-78
2021/09/05 10:07:22;;;;;;;13.40;12.30;;;31.20;46.40;;;;;;5115493;28;20462;-78
2021/09/05 10:09:50;;;;;;;13.50;12.27;;;31.40;46.00;;;;;;5115796;28;20446;-78
2021/09/05 10:12:19;;;;;;;12.43;11.13;;;31.70;45.50;;;;;;5115101;28;20427;-77
2021/09/05 10:14:53;;;;;;;11.83;10.73;;;32.00;44.20;;;;;;5115312;28;20469;-78
2021/09/05 10:17:22;;;;;;;13.33;12.00;;;32.30;43.10;;;;;;5115300;28;20884;-76
2021/09/05 10:19:50;;;;;;;14.50;13.20;;;32.60;41.30;;;;;;5113741;28;20563;-75
2021/09/05 10:22:19;;;;;;;15.83;14.43;;;32.90;39.90;;;;;;5113886;28;20449;-75
2021/09/05 10:24:48;;;;;;;16.07;14.43;;;33.10;40.30;;;;;;5113839;28;20477;-76
2021/09/05 10:27:15;;;;;;;15.60;14.20;;;33.20;39.50;;;;;;5113711;28;20462;-75
2021/09/05 10:30:11;;;;;;;14.83;13.63;;;33.40;39.10;;;;;;5113756;28;20541;-76
2021/09/05 10:32:48;;;;;;;13.63;12.57;;;33.80;39.00;;;;;;5113607;28;20419;-76
2021/09/05 10:35:35;;;;;;;16.73;15.30;;;34.10;37.90;;;;;;5114945;28;20430;-78
2021/09/05 10:38:22;;;;;;;14.70;13.27;;;34.50;36.30;;;;;;5114713;28;20458;-77
2021/09/05 10:40:52;;;;;;;15.60;14.30;;;34.80;35.70;;;;;;5114861;28;20517;-80
2021/09/05 10:43:20;;;;;;;16.37;15.07;;;35.10;34.80;;;;;;5117664;28;20423;-79
2021/09/05 10:45:50;;;;;;;15.60;14.20;;;35.40;34.10;;;;;;5117137;28;20445;-79
2021/09/05 10:48:30;;;;;;;14.23;13.03;;;35.60;33.10;;;;;;5116442;28;20474;-78
2021/09/05 10:51:05;;;;;;;16.03;14.43;;;36.10;32.30;;;;;;5116346;28;20482;-78
2021/09/05 10:53:36;;;;;;;15.10;13.80;;;36.50;32.30;;;;;;5115533;28;20245;-76
2021/09/05 10:56:09;;;;;;;15.43;14.03;;;37.00;30.80;;;;;;5113692;28;20462;-76
2021/09/05 10:58:38;;;;;;;15.70;14.40;;;37.30;30.30;;;;;;5113770;28;20280;-76
2021/09/05 11:01:20;;;;;;;15.10;13.70;;;37.70;29.70;;;;;;5113220;28;20667;-76
2021/09/05 11:04:17;;;;;;;14.97;13.43;;;38.00;29.20;;;;;;5113627;28;20189;-76
2021/09/05 11:06:44;;;;;;;15.20;13.80;;;38.20;29.00;;;;;;5114621;28;20220;-75
2021/09/05 11:09:57;;;;;;;13.95;12.73;;;38.40;28.30;;;;;;5117349;28;20184;-76
2021/09/05 11:12:44;;;;;;;15.23;13.75;;;38.50;28.30;;;;;;5116988;28;20207;-76
2021/09/05 11:15:23;;;;;;;15.57;14.27;;;38.70;28.30;;;;;;5117183;28;20192;-75
2021/09/05 11:17:58;;;;;;;14.05;12.95;;;38.80;27.40;;;;;;5117583;28;20220;-76
2021/09/05 11:20:25;;;;;;;14.65;13.45;;;38.80;27.70;;;;;;5116803;28;20643;-75
2021/09/05 11:22:52;;;;;;;13.43;12.35;;;38.80;28.30;;;;;;5116918;28;20207;-76
2021/09/05 11:25:22;;;;;;;13.88;12.75;;;39.00;28.70;;;;;;5116970;28;20185;-75
2021/09/05 11:27:52;;;;;;;13.88;12.68;;;39.20;28.30;;;;;;5116392;28;20601;-77
2021/09/05 11:30:18;;;;;;;15.00;13.70;;;39.50;28.00;;;;;;5116878;28;20189;-76
2021/09/05 11:32:46;;;;;;;13.55;12.30;;;39.80;27.30;;;;;;5116842;28;20207;-76
2021/09/05 11:35:15;;;;;;;13.02;12.00;;;40.00;27.50;;;;;;5116801;28;20211;-76
2021/09/05 11:37:44;;;;;;;13.18;11.90;;;40.30;27.00;;;;;;5116657;28;20221;-76
2021/09/05 11:40:13;;;;;;;13.07;12.07;;;40.50;26.30;;;;;;5116583;28;20291;-76
2021/09/05 11:42:45;;;;;;;13.40;12.20;;;40.80;25.70;;;;;;5116629;28;20196;-77
2021/09/05 11:45:14;;;;;;;13.80;12.65;;;41.00;25.40;;;;;;5116492;28;20189;-76
2021/09/05 11:47:43;;;;;;;13.07;12.07;;;41.10;26.00;;;;;;5116338;28;20224;-76
2021/09/05 11:50:11;;;;;;;13.40;12.30;;;41.40;25.30;;;;;;5116464;28;20267;-76
2021/09/05 11:52:41;;;;;;;12.15;11.25;;;41.60;25.10;;;;;;5116341;28;20219;-76
2021/09/05 11:55:10;;;;;;;12.43;11.43;;;42.10;24.80;;;;;;5116223;28;20181;-76
2021/09/05 11:57:38;;;;;;;12.55;11.45;;;42.40;23.70;;;;;;5115827;28;20707;-75
2021/09/05 12:00:08;;;;;;;11.65;10.85;;;42.50;24.00;;;;;;5116134;28;20242;-76
2021/09/05 12:02:36;;;;;;;12.15;11.10;;;42.60;23.50;;;;;;5116198;28;20279;-76
2021/09/05 12:05:05;;;;;;;13.35;12.15;;;42.80;23.60;;;;;;5116236;28;20195;-76
2021/09/05 12:07:37;;;;;;;12.90;11.75;;;42.90;23.00;;;;;;5116070;28;20220;-76
2021/09/05 12:10:08;;;;;;;14.00;12.70;;;43.00;22.30;;;;;;5116262;28;20238;-77
2021/09/05 12:12:35;;;;;;;12.93;11.95;;;42.90;23.50;;;;;;5115485;28;20247;-76
2021/09/05 12:15:15;;;;;;;12.15;11.25;;;43.00;22.80;;;;;;5115714;28;20635;-76
2021/09/05 12:17:48;;;;;;;12.00;10.98;;;43.10;22.80;;;;;;5116210;28;20222;-76
2021/09/05 12:20:15;;;;;;;18.77;17.38;;;43.30;22.70;;;;;;5115951;28;20291;-76
2021/09/05 12:22:45;;;;;;;13.98;13.00;;;43.50;22.80;;;;;;5115899;28;20192;-76
2021/09/05 12:25:17;;;;;;;12.77;11.60;;;43.70;21.70;;;;;;5115841;28;20196;-76
2021/09/05 12:27:58;;;;;;;15.30;14.02;;;43.50;22.50;;;;;;5115347;28;20269;-76
2021/09/05 12:30:27;;;;;;;12.52;11.52;;;43.60;23.00;;;;;;5115305;28;20675;-76
2021/09/05 12:33:19;;;;;;;11.40;10.40;;;43.70;21.60;;;;;;5115187;28;20590;-76
2021/09/05 12:35:48;;;;;;;12.40;11.30;;;43.80;21.60;;;;;;5095735;28;20626;-76